METAR Data

Data at: 1741 UTC 21 Nov 2018

METAR for:KHTO (East Hampton Arpt, NY, US)
Text:KHTO 211735Z AUTO 25012KT 10SM OVC100 05/M04 A2997 RMK AO2 T00521041
Temperature: 5.2°C ( 41°F)
Dewpoint: -4.1°C ( 25°F) [RH = 51%]
Pressure (altimeter):29.97 inches Hg (1015.0 mb)
Winds:from the WSW (250 degrees) at 14 MPH (12 knots; 6.2 m/s)
Visibility:10 or more sm (16+ km)
Ceiling:10000 feet AGL
Clouds: overcast cloud deck at 10000 feet AGL
QC Flag:automated observation with no human augmentation